Time;durP1;ratioP1;P1;durP2;ratioP2;P2;SDS_P1;SDS_P2;PMS_P1;PMS_P2;Temp;Humidity;BMP_temperature;BMP_pressure;BME280_temperature;BME280_humidity;BME280_pressure;Samples;Min_cycle;Max_cycle;Signal;HPM_P1;HPM_P2
2022/09/24 00:01:17;;;;;;;10.38;4.15;;;13.60;99.90;;;;;;4935884;29;20035;-78
2022/09/24 00:03:49;;;;;;;6.13;3.77;;;13.70;99.90;;;;;;4935439;29;20027;-78
2022/09/24 00:06:17;;;;;;;8.70;3.97;;;13.70;99.90;;;;;;4950273;29;20047;-79
2022/09/24 00:08:45;;;;;;;6.32;3.80;;;13.80;99.90;;;;;;4949903;29;20027;-78
2022/09/24 00:11:12;;;;;;;7.47;3.42;;;13.80;99.90;;;;;;4935775;29;20035;-79
2022/09/24 00:13:39;;;;;;;8.55;4.15;;;13.80;99.90;;;;;;4949749;29;20028;-79
2022/09/24 00:16:10;;;;;;;7.90;4.70;;;13.80;99.90;;;;;;4935572;29;20031;-79
2022/09/24 00:18:37;;;;;;;8.55;4.82;;;13.70;99.90;;;;;;4950000;28;20024;-79
2022/09/24 00:21:25;;;;;;;6.45;3.80;;;13.70;99.90;;;;;;4949489;28;20039;-78
2022/09/24 00:23:57;;;;;;;10.52;3.78;;;13.70;99.90;;;;;;4962369;28;20034;-78
2022/09/24 00:29:11;;;;;;;6.22;3.47;;;13.70;99.90;;;;;;4966941;28;20674;-78
2022/09/24 00:31:37;;;;;;;10.43;4.20;;;13.70;99.90;;;;;;4954509;28;20038;-79
2022/09/24 00:34:03;;;;;;;13.57;4.65;;;13.70;99.90;;;;;;4954358;28;20031;-79
2022/09/24 00:36:29;;;;;;;7.47;3.53;;;13.70;99.90;;;;;;4969459;28;20035;-78
2022/09/24 00:38:57;;;;;;;8.40;3.97;;;13.70;99.90;;;;;;4954167;29;20386;-78
2022/09/24 00:41:31;;;;;;;8.23;4.40;;;13.80;99.90;;;;;;4954727;28;20037;-79
2022/09/24 00:43:57;;;;;;;8.55;4.10;;;13.80;99.90;;;;;;4953969;28;20041;-78
2022/09/24 00:46:41;;;;;;;7.25;4.65;;;13.80;99.90;;;;;;4968924;28;20019;-78
2022/09/24 00:49:17;;;;;;;9.38;4.53;;;13.80;99.90;;;;;;4968325;28;20031;-78
2022/09/24 00:51:48;;;;;;;8.60;4.18;;;13.80;99.90;;;;;;4969580;28;20491;-79
2022/09/24 00:54:20;;;;;;;7.97;4.28;;;13.80;99.90;;;;;;4968389;28;20058;-78
2022/09/24 00:56:49;;;;;;;6.25;3.80;;;13.70;99.90;;;;;;4969015;28;20035;-79
2022/09/24 00:59:18;;;;;;;8.13;4.15;;;13.60;99.90;;;;;;4968557;28;20575;-79
2022/09/24 01:01:47;;;;;;;4.00;2.80;;;13.60;99.90;;;;;;4954201;29;20086;-79
2022/09/24 01:04:15;;;;;;;7.95;4.43;;;13.70;99.90;;;;;;4967766;28;20043;-79
2022/09/24 01:06:41;;;;;;;7.22;3.97;;;13.60;99.90;;;;;;4953552;28;20078;-79
2022/09/24 01:09:07;;;;;;;6.55;3.80;;;13.60;99.90;;;;;;4961311;28;20031;-79
2022/09/24 01:12:38;;;;;;;6.60;3.40;;;13.60;99.90;;;;;;4964417;28;20033;-79
2022/09/24 01:15:26;;;;;;;7.38;3.85;;;13.50;99.90;;;;;;4966273;28;20040;-79
2022/09/24 01:18:33;;;;;;;8.75;3.55;;;13.40;99.90;;;;;;4954120;28;20027;-79
2022/09/24 01:21:33;;;;;;;8.20;3.25;;;13.10;99.90;;;;;;4952736;29;20058;-79
2022/09/24 01:24:14;;;;;;;7.38;3.85;;;13.00;99.90;;;;;;4957498;28;20035;-79
2022/09/24 01:27:04;;;;;;;6.88;3.38;;;12.90;99.90;;;;;;4952432;29;20089;-79
2022/09/24 01:29:44;;;;;;;6.22;3.63;;;12.90;99.90;;;;;;4952998;28;20518;-79
2022/09/24 01:32:37;;;;;;;7.15;4.32;;;12.80;99.90;;;;;;4952454;28;20046;-79
2022/09/24 01:35:23;;;;;;;10.15;4.00;;;12.70;99.90;;;;;;4966882;28;20050;-79
2022/09/24 01:38:01;;;;;;;6.80;3.65;;;12.70;99.90;;;;;;4967732;28;20086;-79
2022/09/24 01:40:29;;;;;;;4.97;2.75;;;12.70;99.90;;;;;;4967078;28;20046;-78
2022/09/24 01:42:58;;;;;;;7.35;3.78;;;12.70;99.90;;;;;;4967795;28;20030;-78
2022/09/24 01:45:29;;;;;;;9.07;3.78;;;12.70;99.90;;;;;;4967610;28;20031;-78
2022/09/24 01:47:56;;;;;;;;;;;12.60;99.90;;;;;;4968033;28;20031;-78
2022/09/24 01:50:23;;;;;;;10.57;4.38;;;12.60;99.90;;;;;;4967277;28;19911;-78
2022/09/24 01:53:07;;;;;;;4.28;2.72;;;12.60;99.90;;;;;;4967203;28;20483;-77
2022/09/24 01:55:42;;;;;;;6.35;3.58;;;12.40;99.90;;;;;;4952992;28;20035;-79
2022/09/24 01:58:13;;;;;;;7.55;3.33;;;12.30;99.90;;;;;;4967050;28;20038;-78
2022/09/24 02:00:45;;;;;;;5.75;2.95;;;12.10;99.90;;;;;;4967360;28;20031;-78
2022/09/24 02:03:16;;;;;;;7.82;3.33;;;12.10;99.90;;;;;;4952300;28;20571;-78
2022/09/24 02:06:02;;;;;;;6.13;3.80;;;12.10;99.90;;;;;;4967567;28;20387;-79
2022/09/24 02:08:38;;;;;;;6.03;3.47;;;12.10;99.90;;;;;;4964317;28;20039;-78
2022/09/24 02:11:20;;;;;;;6.07;3.22;;;12.10;99.90;;;;;;4967069;28;20551;-78
2022/09/24 02:14:10;;;;;;;10.63;3.85;;;12.10;99.90;;;;;;4966266;28;20039;-78
2022/09/24 02:16:44;;;;;;;10.90;3.47;;;12.10;99.90;;;;;;4970894;28;20089;-79
2022/09/24 02:19:14;;;;;;;6.00;3.75;;;12.10;99.90;;;;;;4971383;28;20475;-78
2022/09/24 02:21:42;;;;;;;7.35;3.85;;;12.00;99.90;;;;;;4987011;28;20388;-78
2022/09/24 02:24:21;;;;;;;8.07;3.78;;;11.80;99.90;;;;;;4971110;28;20030;-78
2022/09/24 02:26:48;;;;;;;8.77;4.05;;;11.80;99.90;;;;;;4966857;28;20085;-78
2022/09/24 02:29:13;;;;;;;7.03;3.42;;;11.80;99.90;;;;;;4952241;28;20506;-78
2022/09/24 02:31:47;;;;;;;6.05;3.25;;;11.90;99.90;;;;;;4952407;28;20035;-78
2022/09/24 02:34:26;;;;;;;5.72;3.00;;;11.90;99.90;;;;;;4950934;29;20031;-79
2022/09/24 02:37:08;;;;;;;5.38;2.78;;;11.90;99.90;;;;;;4951069;29;20042;-79
2022/09/24 02:39:35;;;;;;;5.40;2.90;;;11.90;99.90;;;;;;4950987;29;20041;-78
2022/09/24 02:42:04;;;;;;;5.15;3.17;;;11.90;99.90;;;;;;4950750;29;20039;-78
2022/09/24 02:44:35;;;;;;;17.88;4.20;;;11.90;99.90;;;;;;4952395;28;20035;-78
2022/09/24 02:47:01;;;;;;;6.35;3.80;;;11.70;99.90;;;;;;4952332;28;20035;-78
2022/09/24 02:49:27;;;;;;;5.63;2.72;;;11.60;99.90;;;;;;4950348;29;20074;-79
2022/09/24 02:51:53;;;;;;;8.82;2.78;;;11.50;99.90;;;;;;4952508;28;20106;-78
2022/09/24 02:54:19;;;;;;;6.07;2.67;;;11.20;99.90;;;;;;4951552;28;20571;-78
2022/09/24 02:56:45;;;;;;;6.72;3.50;;;11.20;99.90;;;;;;4951573;29;20027;-79
2022/09/24 02:59:11;;;;;;;11.57;3.33;;;11.10;99.90;;;;;;4951688;28;20110;-78
2022/09/24 03:01:37;;;;;;;6.00;4.15;;;11.10;99.90;;;;;;4952276;28;20170;-78
2022/09/24 03:04:03;;;;;;;8.68;2.95;;;11.10;99.90;;;;;;4954538;28;20114;-78
2022/09/24 03:06:29;;;;;;;8.50;3.40;;;11.20;99.90;;;;;;4974596;28;20654;-78
2022/09/24 03:08:55;;;;;;;5.53;3.20;;;11.30;99.90;;;;;;4975047;28;20644;-78
2022/09/24 03:11:22;;;;;;;6.25;3.42;;;11.30;99.90;;;;;;4966335;28;20082;-78
2022/09/24 03:13:49;;;;;;;7.05;3.50;;;11.30;99.90;;;;;;4951664;28;20023;-78
2022/09/24 03:16:16;;;;;;;5.43;3.35;;;11.40;99.90;;;;;;4969662;28;20411;-79
2022/09/24 03:18:42;;;;;;;3.90;2.20;;;11.10;99.90;;;;;;4985810;28;20069;-78
2022/09/24 03:21:11;;;;;;;5.50;3.35;;;11.20;99.90;;;;;;4952920;28;20628;-78
2022/09/24 03:23:38;;;;;;;5.40;3.10;;;11.10;99.90;;;;;;4951130;28;20035;-78
2022/09/24 03:26:04;;;;;;;6.32;3.25;;;11.00;99.90;;;;;;4966556;28;20392;-78
2022/09/24 03:28:30;;;;;;;9.38;3.80;;;10.90;99.90;;;;;;4951615;28;20041;-77
2022/09/24 03:31:00;;;;;;;4.70;2.75;;;10.80;99.90;;;;;;4951585;28;20055;-79
2022/09/24 03:33:38;;;;;;;7.18;3.90;;;10.80;99.90;;;;;;4951179;28;20095;-79
2022/09/24 03:36:12;;;;;;;8.15;3.20;;;10.80;99.90;;;;;;4951685;28;20038;-79
2022/09/24 03:38:40;;;;;;;7.57;4.03;;;10.70;99.90;;;;;;4965742;28;20558;-78
2022/09/24 03:41:07;;;;;;;7.95;2.95;;;10.50;99.90;;;;;;4966242;28;20050;-78
2022/09/24 03:43:34;;;;;;;4.25;2.80;;;10.30;99.90;;;;;;4966067;28;20029;-78
2022/09/24 03:46:00;;;;;;;5.90;2.97;;;10.50;99.90;;;;;;4951446;29;20031;-78
2022/09/24 03:48:26;;;;;;;6.15;3.47;;;10.60;99.90;;;;;;4951421;28;20094;-76
2022/09/24 03:50:52;;;;;;;4.93;3.50;;;10.50;99.90;;;;;;4965666;28;20070;-77
2022/09/24 03:53:19;;;;;;;5.13;2.95;;;10.40;99.90;;;;;;4951452;29;20514;-80
2022/09/24 03:55:54;;;;;;;5.13;3.38;;;10.50;99.90;;;;;;4968937;28;20027;-81
2022/09/24 03:58:20;;;;;;;4.63;3.08;;;10.60;99.90;;;;;;4955110;28;20096;-80
2022/09/24 04:00:46;;;;;;;4.63;3.00;;;10.50;99.90;;;;;;4954867;28;20059;-80
2022/09/24 04:03:11;;;;;;;5.20;3.63;;;10.40;99.90;;;;;;4969554;28;20041;-80
2022/09/24 04:05:37;;;;;;;7.20;3.22;;;10.30;99.90;;;;;;4954268;29;20086;-80
2022/09/24 04:08:06;;;;;;;4.65;3.08;;;10.30;99.90;;;;;;4954730;28;20550;-79
2022/09/24 04:10:32;;;;;;;7.70;2.97;;;10.30;99.90;;;;;;4956905;28;20030;-79
2022/09/24 04:12:58;;;;;;;10.55;2.97;;;10.40;99.90;;;;;;4973739;28;20034;-78
2022/09/24 04:15:24;;;;;;;6.40;3.53;;;10.40;99.90;;;;;;4964835;28;20634;-78
2022/09/24 04:17:57;;;;;;;4.70;2.80;;;10.40;99.90;;;;;;4954748;28;20032;-79
2022/09/24 04:20:27;;;;;;;4.50;2.83;;;10.30;99.90;;;;;;4953929;28;20066;-79
2022/09/24 04:22:55;;;;;;;4.97;3.17;;;10.40;99.90;;;;;;4967466;28;20027;-78
2022/09/24 04:25:23;;;;;;;4.78;2.67;;;10.40;99.90;;;;;;4968921;28;20039;-79
2022/09/24 04:27:55;;;;;;;5.10;2.47;;;10.50;99.90;;;;;;4954624;28;20027;-79
2022/09/24 04:30:23;;;;;;;3.85;2.47;;;10.50;99.90;;;;;;4968545;28;20089;-79
2022/09/24 04:32:50;;;;;;;7.35;2.90;;;10.60;99.90;;;;;;4969055;28;20031;-79
2022/09/24 04:35:21;;;;;;;11.75;3.03;;;10.70;99.90;;;;;;4953988;28;20491;-79
2022/09/24 04:37:47;;;;;;;4.65;2.88;;;10.70;99.90;;;;;;4969318;28;20027;-78
2022/09/24 04:40:14;;;;;;;9.43;2.90;;;10.70;99.90;;;;;;4969762;28;20070;-78
2022/09/24 04:42:43;;;;;;;5.68;3.05;;;10.70;99.90;;;;;;4955086;29;20031;-78
2022/09/24 04:45:10;;;;;;;5.78;3.60;;;10.60;99.90;;;;;;4968788;28;20038;-78
2022/09/24 04:47:39;;;;;;;4.43;3.47;;;10.60;99.90;;;;;;4969015;28;20035;-78
2022/09/24 04:50:08;;;;;;;4.78;3.20;;;10.60;99.90;;;;;;4953795;28;20118;-80
2022/09/24 04:52:34;;;;;;;5.70;3.15;;;10.70;99.90;;;;;;4968141;28;20031;-78
2022/09/24 04:55:00;;;;;;;9.32;3.45;;;10.50;99.90;;;;;;4968936;28;20480;-78
2022/09/24 04:57:28;;;;;;;6.95;2.72;;;10.60;99.90;;;;;;4968923;28;20110;-78
2022/09/24 04:59:54;;;;;;;4.28;2.65;;;10.60;99.90;;;;;;4953478;28;20059;-78
2022/09/24 05:02:20;;;;;;;4.25;3.17;;;10.70;99.90;;;;;;4953281;28;20046;-78
2022/09/24 05:04:46;;;;;;;4.25;3.03;;;10.70;99.90;;;;;;4953292;28;20035;-79
2022/09/24 05:07:12;;;;;;;4.68;3.22;;;10.80;99.90;;;;;;4952386;28;20089;-78
2022/09/24 05:09:38;;;;;;;5.95;3.08;;;10.90;99.90;;;;;;4953224;28;20649;-79
2022/09/24 05:12:04;;;;;;;4.25;2.38;;;10.90;99.90;;;;;;4969559;28;20039;-76
2022/09/24 05:14:30;;;;;;;4.40;3.25;;;10.80;99.90;;;;;;4985809;28;20038;-78
2022/09/24 05:16:56;;;;;;;5.20;3.15;;;10.60;99.90;;;;;;4952258;29;20031;-77
2022/09/24 05:19:22;;;;;;;5.85;3.03;;;10.60;99.90;;;;;;4953171;28;20392;-78
2022/09/24 05:21:48;;;;;;;8.02;3.90;;;10.30;99.90;;;;;;4952985;29;20030;-77
2022/09/24 05:24:14;;;;;;;4.43;3.17;;;10.30;99.90;;;;;;4952930;29;20020;-77
2022/09/24 05:29:24;;;;;;;4.18;2.45;;;10.30;99.90;;;;;;4952971;29;20472;-77
2022/09/24 05:31:50;;;;;;;10.25;3.03;;;10.40;99.90;;;;;;4953748;28;20028;-76
2022/09/24 05:34:15;;;;;;;6.78;3.17;;;10.50;99.90;;;;;;4969650;28;20562;-73
2022/09/24 05:36:42;;;;;;;7.45;3.20;;;10.50;99.90;;;;;;4972675;28;20554;-76
2022/09/24 05:39:10;;;;;;;4.53;3.10;;;10.60;99.90;;;;;;4986686;28;20062;-73
2022/09/24 05:41:37;;;;;;;7.75;3.13;;;10.60;99.90;;;;;;4963729;28;20023;-74
2022/09/24 05:44:04;;;;;;;9.02;4.22;;;10.50;99.90;;;;;;4954032;28;20034;-73
2022/09/24 05:46:30;;;;;;;7.50;3.08;;;10.60;99.90;;;;;;4987413;28;20543;-72
2022/09/24 05:48:56;;;;;;;7.72;3.17;;;10.70;99.90;;;;;;4987048;28;20061;-74
2022/09/24 05:51:22;;;;;;;4.43;2.67;;;10.70;99.90;;;;;;4972734;28;20459;-71
2022/09/24 05:53:49;;;;;;;4.40;3.33;;;10.80;99.90;;;;;;4971623;28;20030;-70
2022/09/24 05:56:15;;;;;;;7.20;3.53;;;10.80;99.90;;;;;;4972619;28;20046;-73
2022/09/24 05:58:41;;;;;;;6.28;3.08;;;10.80;99.90;;;;;;4972072;28;20463;-71
2022/09/24 06:01:07;;;;;;;7.22;3.50;;;10.80;99.90;;;;;;4963176;28;20031;-73
2022/09/24 06:03:33;;;;;;;7.85;4.32;;;10.90;99.90;;;;;;4966519;28;20090;-72
2022/09/24 06:06:00;;;;;;;6.07;4.53;;;10.90;99.90;;;;;;4952649;28;20546;-73
2022/09/24 06:08:29;;;;;;;9.02;4.38;;;10.90;99.90;;;;;;4952978;28;20038;-75
2022/09/24 06:11:04;;;;;;;5.95;3.38;;;11.10;99.90;;;;;;4952554;28;20038;-71
2022/09/24 06:13:33;;;;;;;14.13;3.90;;;11.10;99.90;;;;;;4929048;28;20039;-73
2022/09/24 06:16:06;;;;;;;7.55;3.20;;;11.20;99.90;;;;;;4951246;29;20031;-73
2022/09/24 06:18:38;;;;;;;11.18;3.30;;;11.40;99.90;;;;;;4951448;28;20479;-73
2022/09/24 06:21:09;;;;;;;13.05;3.50;;;11.40;99.90;;;;;;4939401;29;20496;-73
2022/09/24 06:23:36;;;;;;;4.03;2.47;;;11.40;99.90;;;;;;4952216;28;20039;-73
2022/09/24 06:26:06;;;;;;;12.48;3.17;;;11.20;99.90;;;;;;4967202;28;20039;-72
2022/09/24 06:28:32;;;;;;;10.27;3.63;;;11.20;99.90;;;;;;4952898;28;20028;-73
2022/09/24 06:31:00;;;;;;;12.07;4.65;;;11.20;99.90;;;;;;4952385;29;20031;-73
2022/09/24 06:33:26;;;;;;;6.80;3.65;;;11.20;99.90;;;;;;4967312;28;20035;-73
2022/09/24 06:35:52;;;;;;;17.48;4.72;;;11.30;99.90;;;;;;4967243;28;20059;-74
2022/09/24 06:38:18;;;;;;;9.38;3.95;;;11.40;99.90;;;;;;4952439;28;20055;-73
2022/09/24 06:40:47;;;;;;;16.65;4.68;;;11.50;99.90;;;;;;4952116;29;20094;-73
2022/09/24 06:43:14;;;;;;;9.75;3.83;;;11.60;99.90;;;;;;4982919;28;20045;-72
2022/09/24 06:45:41;;;;;;;6.43;3.67;;;11.70;99.90;;;;;;4966660;28;20546;-72
2022/09/24 06:48:13;;;;;;;8.00;3.15;;;11.80;99.90;;;;;;4952042;28;20035;-73
2022/09/24 06:50:42;;;;;;;7.35;3.95;;;11.90;99.90;;;;;;4951995;28;20039;-73
2022/09/24 06:53:10;;;;;;;35.70;17.13;;;12.20;99.90;;;;;;4964206;28;20114;-72
2022/09/24 06:55:37;;;;;;;15.30;8.93;;;12.20;99.90;;;;;;4952404;28;20039;-73
2022/09/24 06:58:12;;;;;;;7.93;3.25;;;12.30;99.90;;;;;;4952219;28;20037;-73
2022/09/24 07:00:39;;;;;;;11.00;4.97;;;12.40;99.90;;;;;;4951860;28;20037;-73
2022/09/24 07:03:06;;;;;;;7.70;4.45;;;12.60;99.90;;;;;;4952008;28;20751;-71
2022/09/24 07:05:33;;;;;;;8.82;6.85;;;12.80;99.90;;;;;;4952334;28;20475;-72
2022/09/24 07:07:59;;;;;;;11.95;5.15;;;12.80;99.90;;;;;;4946868;28;20439;-72
2022/09/24 07:10:26;;;;;;;12.15;6.72;;;12.80;99.90;;;;;;4953589;28;20078;-72
2022/09/24 07:12:52;;;;;;;8.30;4.18;;;12.80;99.90;;;;;;4951655;28;20106;-71
2022/09/24 07:15:17;;;;;;;8.50;3.72;;;12.90;99.90;;;;;;4950491;28;20122;-73
2022/09/24 07:17:43;;;;;;;12.25;5.25;;;12.70;99.90;;;;;;4949731;28;20039;-73
2022/09/24 07:20:09;;;;;;;10.82;5.70;;;12.80;99.90;;;;;;4951420;28;20080;-73
2022/09/24 07:22:39;;;;;;;12.30;6.13;;;12.90;99.90;;;;;;4951666;28;20031;-73
2022/09/24 07:25:09;;;;;;;8.43;4.53;;;12.90;99.90;;;;;;4951008;28;20066;-73
2022/09/24 07:27:36;;;;;;;9.20;4.10;;;13.00;99.90;;;;;;4949437;29;20075;-72
2022/09/24 07:30:05;;;;;;;12.02;4.70;;;12.80;99.90;;;;;;4951875;28;20055;-73
2022/09/24 07:32:31;;;;;;;13.15;5.13;;;12.80;99.90;;;;;;4954042;29;20554;-73
2022/09/24 07:34:57;;;;;;;86.18;33.55;;;13.00;99.90;;;;;;4970487;28;20043;-74
2022/09/24 07:37:22;;;;;;;21.70;12.23;;;13.20;99.90;;;;;;4955388;28;20031;-74
2022/09/24 07:39:48;;;;;;;7.50;4.47;;;13.40;99.90;;;;;;4954792;28;20399;-74
2022/09/24 07:42:14;;;;;;;10.10;4.70;;;13.40;99.90;;;;;;4955138;29;20035;-74
2022/09/24 07:44:39;;;;;;;7.95;4.38;;;13.70;99.90;;;;;;4954531;29;20043;-74
2022/09/24 07:47:05;;;;;;;22.38;5.50;;;13.70;99.90;;;;;;4953862;29;20035;-74
2022/09/24 07:49:31;;;;;;;91.68;34.85;;;13.80;99.90;;;;;;4953645;29;20464;-74
2022/09/24 07:51:58;;;;;;;41.13;15.35;;;14.00;99.90;;;;;;4955088;28;20415;-74
2022/09/24 07:54:25;;;;;;;20.45;7.07;;;13.90;99.90;;;;;;4969471;28;20035;-73
2022/09/24 07:56:50;;;;;;;11.40;6.03;;;14.20;99.90;;;;;;4953112;29;20507;-73
2022/09/24 07:59:18;;;;;;;10.55;4.43;;;13.90;99.90;;;;;;4950390;28;20047;-73
2022/09/24 08:01:44;;;;;;;9.05;5.60;;;14.20;99.90;;;;;;4954996;28;20038;-75
2022/09/24 08:04:10;;;;;;;9.30;5.20;;;14.30;99.90;;;;;;4953433;29;20019;-74
2022/09/24 08:06:36;;;;;;;43.15;6.22;;;14.40;99.90;;;;;;4954760;29;20440;-73
2022/09/24 08:09:03;;;;;;;18.75;4.97;;;14.20;99.90;;;;;;4951577;28;20094;-74
2022/09/24 08:11:29;;;;;;;15.68;6.30;;;14.30;99.90;;;;;;4957368;28;20462;-74
2022/09/24 08:13:56;;;;;;;9.98;5.57;;;14.50;99.90;;;;;;4952930;29;20066;-75
2022/09/24 08:16:23;;;;;;;10.20;5.47;;;14.70;99.90;;;;;;4958104;28;20031;-73
2022/09/24 08:18:48;;;;;;;9.98;5.55;;;14.90;99.90;;;;;;4953129;29;20019;-73
2022/09/24 08:21:14;;;;;;;9.35;5.95;;;15.10;99.90;;;;;;4969550;28;20035;-73
2022/09/24 08:23:42;;;;;;;11.85;5.68;;;15.00;99.90;;;;;;4971061;28;20845;-73
2022/09/24 08:26:10;;;;;;;9.18;5.20;;;15.20;99.90;;;;;;4975022;23;20054;-73
2022/09/24 08:28:37;;;;;;;11.02;5.95;;;15.30;99.90;;;;;;4962762;28;20062;-73
2022/09/24 08:31:08;;;;;;;11.20;6.10;;;15.20;99.90;;;;;;4954270;28;20027;-72
2022/09/24 08:33:36;;;;;;;17.17;5.35;;;15.20;99.90;;;;;;4954151;28;20039;-71
2022/09/24 08:36:05;;;;;;;10.38;5.35;;;15.20;99.90;;;;;;4974945;28;20448;-69
2022/09/24 08:38:31;;;;;;;10.43;5.03;;;15.60;99.90;;;;;;4944117;28;20098;-79
2022/09/24 08:41:38;;;;;;;8.43;4.18;;;15.40;99.90;;;;;;4943106;28;20164;-68
2022/09/24 08:47:21;;;;;;;12.95;5.03;;;15.20;99.90;;;;;;4926668;29;20036;-67
2022/09/24 08:47:22;;;;;;;13.05;5.55;;;15.10;99.90;;;;;;4915211;29;20043;-70
2022/09/24 08:50:11;;;;;;;11.32;6.82;;;15.20;99.90;;;;;;4916140;29;20036;-69
2022/09/24 08:53:05;;;;;;;21.58;10.63;;;15.20;99.90;;;;;;4930061;28;20077;-69
2022/09/24 08:55:38;;;;;;;16.33;6.57;;;15.70;99.90;;;;;;4934883;29;20046;-77
2022/09/24 08:58:21;;;;;;;16.15;5.85;;;16.00;99.90;;;;;;4933911;28;20027;-70
2022/09/24 09:01:13;;;;;;;12.20;5.55;;;15.90;99.90;;;;;;4936198;28;20118;-69
2022/09/24 09:03:39;;;;;;;17.40;5.63;;;15.90;99.90;;;;;;4948450;29;20047;-74
2022/09/24 09:06:28;;;;;;;12.10;6.05;;;15.80;99.90;;;;;;4942628;28;20039;-71
2022/09/24 09:09:23;;;;;;;14.40;5.07;;;15.70;99.90;;;;;;4948494;28;20504;-69
2022/09/24 09:11:57;;;;;;;9.55;4.90;;;16.00;99.90;;;;;;4920949;29;20552;-67
2022/09/24 09:14:53;;;;;;;7.15;4.18;;;16.00;99.90;;;;;;4915557;29;20070;-66
2022/09/24 09:18:03;;;;;;;6.13;4.18;;;16.00;99.90;;;;;;4940133;29;20031;-71
2022/09/24 09:20:41;;;;;;;9.38;3.88;;;16.10;99.90;;;;;;4936426;29;20024;-68
2022/09/24 09:23:40;;;;;;;9.75;5.40;;;15.90;99.90;;;;;;4923608;29;20070;-67
2022/09/24 09:26:10;;;;;;;12.05;4.47;;;16.30;99.90;;;;;;4932678;29;20134;-62
2022/09/24 09:28:36;;;;;;;12.93;4.70;;;16.60;99.90;;;;;;4934287;29;20432;-66
2022/09/24 09:31:26;;;;;;;8.52;4.50;;;16.30;99.90;;;;;;4933980;29;20492;-68
2022/09/24 09:34:20;;;;;;;11.23;4.80;;;16.20;99.90;;;;;;4934300;29;20079;-70
2022/09/24 09:37:19;;;;;;;9.68;5.13;;;16.30;99.90;;;;;;4933300;29;20031;-71
2022/09/24 09:40:09;;;;;;;8.57;4.30;;;16.10;99.90;;;;;;4922056;29;20127;-72
2022/09/24 09:42:39;;;;;;;9.45;5.20;;;16.00;99.90;;;;;;4914512;29;20214;-73
2022/09/24 09:46:09;;;;;;;10.15;4.47;;;16.00;99.90;;;;;;4929863;28;20491;-71
2022/09/24 09:48:51;;;;;;;13.82;6.60;;;16.40;99.90;;;;;;4926249;29;20039;-67
2022/09/24 09:51:24;;;;;;;66.05;28.20;;;16.80;99.90;;;;;;4937765;29;20040;-73
2022/09/24 09:53:56;;;;;;;11.63;4.80;;;16.80;99.90;;;;;;4949350;28;20039;-69
2022/09/24 09:56:41;;;;;;;11.25;4.43;;;16.50;99.90;;;;;;4918717;29;20388;-69
2022/09/24 09:59:12;;;;;;;7.13;4.35;;;16.70;99.90;;;;;;4931859;29;20024;-67
2022/09/24 10:01:42;;;;;;;8.52;4.35;;;16.50;99.90;;;;;;4933839;29;20443;-68
2022/09/24 10:04:38;;;;;;;8.32;4.10;;;16.60;99.90;;;;;;4932006;29;20034;-69
2022/09/24 10:07:14;;;;;;;7.00;3.75;;;16.50;99.90;;;;;;4933930;29;20038;-69
2022/09/24 10:09:42;;;;;;;9.40;4.05;;;16.80;99.90;;;;;;4931985;29;20035;-68
2022/09/24 10:12:20;;;;;;;11.50;3.47;;;17.40;99.90;;;;;;4918460;29;20059;-69
2022/09/24 10:15:00;;;;;;;8.85;3.65;;;17.20;99.90;;;;;;4933406;29;20036;-70
2022/09/24 10:17:38;;;;;;;7.15;3.88;;;17.60;99.90;;;;;;4932814;29;20396;-78
2022/09/24 10:20:30;;;;;;;4.60;3.10;;;18.00;99.90;;;;;;4947993;28;20106;-75
2022/09/24 10:23:07;;;;;;;6.45;3.30;;;18.00;99.90;;;;;;4917053;29;20118;-72
2022/09/24 10:25:35;;;;;;;5.22;2.70;;;18.10;99.90;;;;;;4935463;28;20527;-68
2022/09/24 10:31:10;;;;;;;5.70;2.97;;;18.50;99.90;;;;;;4938886;29;20295;-67
2022/09/24 10:33:42;;;;;;;6.05;2.58;;;18.70;99.90;;;;;;4939934;29;20407;-70
2022/09/24 10:36:24;;;;;;;7.22;4.15;;;18.60;99.90;;;;;;4938912;28;20036;-63
2022/09/24 10:39:08;;;;;;;7.32;2.38;;;18.40;99.90;;;;;;4940555;29;20028;-63
2022/09/24 10:41:34;;;;;;;6.40;2.47;;;17.90;99.90;;;;;;4949050;28;20027;-65
2022/09/24 10:44:10;;;;;;;7.05;2.65;;;18.20;99.90;;;;;;4934100;29;20898;-67
2022/09/24 10:47:20;;;;;;;5.80;2.47;;;18.20;99.90;;;;;;4913108;29;20118;-65
2022/09/24 10:50:09;;;;;;;6.18;2.60;;;18.20;99.90;;;;;;4915041;29;20035;-67
2022/09/24 10:53:11;;;;;;;6.28;2.20;;;17.70;99.90;;;;;;4913078;29;20141;-67
2022/09/24 10:56:20;;;;;;;4.70;2.22;;;18.10;99.90;;;;;;4914015;29;20485;-64
2022/09/24 10:59:11;;;;;;;6.00;3.25;;;17.80;99.90;;;;;;4913631;29;20046;-64
2022/09/24 11:02:04;;;;;;;4.70;2.60;;;18.00;99.90;;;;;;4914161;29;20063;-62
2022/09/24 11:04:44;;;;;;;6.20;2.58;;;18.70;99.90;;;;;;4930209;29;20689;-63
2022/09/24 11:07:53;;;;;;;6.65;3.53;;;19.20;99.90;;;;;;4932040;29;20646;-63
2022/09/24 11:10:48;;;;;;;4.28;2.38;;;19.40;99.90;;;;;;4927213;29;20034;-66
2022/09/24 11:13:42;;;;;;;5.90;2.78;;;18.40;99.90;;;;;;4922628;28;20040;-66
2022/09/24 11:16:46;;;;;;;4.32;2.38;;;18.50;99.90;;;;;;4933813;29;20031;-65
2022/09/24 11:19:32;;;;;;;6.85;2.83;;;18.40;99.90;;;;;;4935175;29;20031;-66
2022/09/24 11:22:15;;;;;;;3.25;2.13;;;19.00;99.90;;;;;;4935279;29;20027;-67
2022/09/24 11:25:19;;;;;;;7.22;2.60;;;18.40;99.90;;;;;;4933813;29;20039;-67
2022/09/24 11:27:57;;;;;;;8.38;2.70;;;18.60;99.90;;;;;;4936018;29;20036;-66
2022/09/24 11:30:46;;;;;;;4.15;2.17;;;18.40;99.90;;;;;;4935102;29;20043;-66
2022/09/24 11:33:51;;;;;;;5.55;2.80;;;18.20;99.90;;;;;;4950622;29;20036;-66
2022/09/24 11:36:33;;;;;;;3.00;1.80;;;18.00;99.90;;;;;;4935015;29;20044;-69
2022/09/24 11:39:29;;;;;;;5.00;2.20;;;18.00;99.90;;;;;;4935108;29;20035;-69
2022/09/24 11:42:30;;;;;;;15.27;2.67;;;18.00;99.90;;;;;;4934990;29;20024;-69
2022/09/24 11:45:23;;;;;;;14.20;6.38;;;18.30;99.90;;;;;;4941333;28;20031;-67
2022/09/24 11:48:17;;;;;;;11.07;5.00;;;18.50;99.90;;;;;;4954950;29;20507;-72
2022/09/24 11:51:05;;;;;;;5.90;2.53;;;18.60;99.90;;;;;;4953866;28;20488;-71
2022/09/24 11:53:44;;;;;;;5.13;1.95;;;18.80;99.90;;;;;;4953789;29;20511;-73
2022/09/24 11:56:21;;;;;;;3.67;2.15;;;19.00;99.90;;;;;;4955173;28;20119;-73
2022/09/24 11:58:57;;;;;;;3.80;2.58;;;18.70;99.90;;;;;;4953617;29;20484;-73
2022/09/24 12:01:32;;;;;;;3.28;2.22;;;18.90;99.90;;;;;;4953979;28;20031;-72
2022/09/24 12:04:15;;;;;;;5.35;2.00;;;19.00;99.90;;;;;;4953541;29;20106;-74
2022/09/24 12:07:22;;;;;;;5.03;2.55;;;19.20;99.90;;;;;;4954269;28;20078;-73
2022/09/24 12:09:57;;;;;;;5.35;2.90;;;19.70;99.90;;;;;;4950322;28;20713;-73
2022/09/24 12:12:32;;;;;;;5.00;2.10;;;20.20;99.90;;;;;;4933860;29;20034;-72
2022/09/24 12:15:19;;;;;;;3.38;1.90;;;20.70;99.90;;;;;;4941547;28;20036;-73
2022/09/24 12:17:56;;;;;;;3.25;1.73;;;20.80;99.90;;;;;;4945149;29;20039;-72
2022/09/24 12:20:28;;;;;;;5.47;2.45;;;20.80;99.90;;;;;;4935031;28;20115;-75
2022/09/24 12:23:02;;;;;;;3.35;1.80;;;20.70;99.90;;;;;;4945198;29;20031;-71
2022/09/24 12:25:33;;;;;;;3.78;1.90;;;19.90;99.90;;;;;;4942069;28;20035;-75
2022/09/24 12:27:59;;;;;;;;;;;20.30;99.90;;;;;;4945232;28;20710;-72
2022/09/24 12:33:24;;;;;;;7.38;2.85;;;19.90;99.90;;;;;;4953230;28;20102;-73
2022/09/24 12:36:16;;;;;;;5.57;2.55;;;19.60;99.90;;;;;;4954370;28;20031;-72
2022/09/24 12:39:08;;;;;;;4.72;2.42;;;19.20;99.90;;;;;;4940578;28;20040;-73
2022/09/24 12:41:43;;;;;;;5.13;2.03;;;19.20;99.90;;;;;;4915136;29;20032;-73
2022/09/24 12:44:09;;;;;;;4.70;1.95;;;19.60;99.90;;;;;;4913527;29;20064;-76
2022/09/24 12:46:49;;;;;;;4.47;1.90;;;19.60;99.90;;;;;;4941916;28;20119;-71
2022/09/24 12:49:23;;;;;;;5.88;2.50;;;19.40;99.90;;;;;;4933868;28;20415;-73
2022/09/24 12:51:57;;;;;;;9.10;2.70;;;18.90;99.90;;;;;;4934355;29;20496;-71
2022/09/24 12:54:31;;;;;;;5.20;2.75;;;19.10;99.90;;;;;;4933977;28;20082;-73
2022/09/24 12:57:19;;;;;;;3.88;2.20;;;19.60;99.90;;;;;;4932305;29;20642;-70
2022/09/24 13:00:00;;;;;;;6.40;2.40;;;19.20;99.90;;;;;;4933136;29;20032;-70
2022/09/24 13:02:43;;;;;;;;;;;19.70;99.90;;;;;;4933946;29;20484;-72
2022/09/24 13:05:21;;;;;;;5.55;2.53;;;19.60;99.90;;;;;;4933722;29;19915;-71
2022/09/24 13:08:23;;;;;;;5.25;2.10;;;19.10;99.90;;;;;;4935098;29;20042;-71
2022/09/24 13:11:04;;;;;;;4.10;2.75;;;19.10;99.90;;;;;;4934385;29;20020;-73
2022/09/24 13:13:39;;;;;;;3.88;2.25;;;19.30;99.90;;;;;;4928337;29;20051;-71
2022/09/24 13:16:18;;;;;;;6.20;2.13;;;19.40;99.90;;;;;;4941158;29;20067;-70
2022/09/24 13:18:55;;;;;;;4.70;2.35;;;19.30;99.90;;;;;;4935798;29;20078;-72
2022/09/24 13:21:28;;;;;;;2.95;1.70;;;19.30;99.90;;;;;;4940252;28;20028;-72
2022/09/24 13:23:54;;;;;;;3.08;2.03;;;19.30;99.90;;;;;;4941682;28;20066;-72
2022/09/24 13:26:23;;;;;;;4.75;2.53;;;19.20;99.90;;;;;;4936600;28;20479;-72
2022/09/24 13:29:19;;;;;;;12.75;3.60;;;19.10;99.90;;;;;;4934872;29;20396;-72
2022/09/24 13:31:51;;;;;;;4.70;2.40;;;19.10;99.90;;;;;;4935916;28;20614;-73
2022/09/24 13:34:23;;;;;;;5.32;1.77;;;19.30;99.90;;;;;;4943305;28;20091;-72